sensor_id;sensor_type;location;lat;lon;timestamp;temperature;humidity
19403;DHT22;9837;48.888;8.998;2024-02-23T00:01:02;9.50;75.70
19403;DHT22;9837;48.888;8.998;2024-02-23T00:03:28;9.40;76.10
19403;DHT22;9837;48.888;8.998;2024-02-23T00:05:53;9.50;76.00
19403;DHT22;9837;48.888;8.998;2024-02-23T00:08:18;9.50;75.40
19403;DHT22;9837;48.888;8.998;2024-02-23T00:10:44;9.50;76.10
19403;DHT22;9837;48.888;8.998;2024-02-23T00:13:10;9.40;75.10
19403;DHT22;9837;48.888;8.998;2024-02-23T00:15:35;9.40;75.80
19403;DHT22;9837;48.888;8.998;2024-02-23T00:18:01;9.30;75.20
19403;DHT22;9837;48.888;8.998;2024-02-23T00:22:54;9.10;73.60
19403;DHT22;9837;48.888;8.998;2024-02-23T00:25:20;9.10;73.70
19403;DHT22;9837;48.888;8.998;2024-02-23T00:27:45;9.10;73.50
19403;DHT22;9837;48.888;8.998;2024-02-23T00:30:13;9.10;73.70
19403;DHT22;9837;48.888;8.998;2024-02-23T00:32:38;9.00;72.80
19403;DHT22;9837;48.888;8.998;2024-02-23T00:35:04;9.00;73.60
19403;DHT22;9837;48.888;8.998;2024-02-23T00:37:30;9.10;73.10
19403;DHT22;9837;48.888;8.998;2024-02-23T00:40:04;9.10;72.70
19403;DHT22;9837;48.888;8.998;2024-02-23T00:42:30;9.00;73.10
19403;DHT22;9837;48.888;8.998;2024-02-23T00:44:56;9.10;72.60
19403;DHT22;9837;48.888;8.998;2024-02-23T00:47:21;9.40;71.70
19403;DHT22;9837;48.888;8.998;2024-02-23T00:52:13;9.50;70.70
19403;DHT22;9837;48.888;8.998;2024-02-23T00:54:38;9.50;70.60
19403;DHT22;9837;48.888;8.998;2024-02-23T00:57:04;9.30;71.20
19403;DHT22;9837;48.888;8.998;2024-02-23T00:59:29;9.40;70.60
19403;DHT22;9837;48.888;8.998;2024-02-23T01:01:55;9.40;70.40
19403;DHT22;9837;48.888;8.998;2024-02-23T01:04:21;9.40;69.90
19403;DHT22;9837;48.888;8.998;2024-02-23T01:06:46;9.60;69.40
19403;DHT22;9837;48.888;8.998;2024-02-23T01:09:12;9.60;70.00
19403;DHT22;9837;48.888;8.998;2024-02-23T01:11:38;9.60;69.90
19403;DHT22;9837;48.888;8.998;2024-02-23T01:14:04;9.40;70.00
19403;DHT22;9837;48.888;8.998;2024-02-23T01:18:57;9.40;69.60
19403;DHT22;9837;48.888;8.998;2024-02-23T01:21:23;9.30;69.20
19403;DHT22;9837;48.888;8.998;2024-02-23T01:23:49;9.30;69.30
19403;DHT22;9837;48.888;8.998;2024-02-23T01:26:14;9.30;69.80
19403;DHT22;9837;48.888;8.998;2024-02-23T01:28:40;9.40;69.50
19403;DHT22;9837;48.888;8.998;2024-02-23T01:31:08;9.60;69.30
19403;DHT22;9837;48.888;8.998;2024-02-23T01:33:36;9.70;69.00
19403;DHT22;9837;48.888;8.998;2024-02-23T01:36:06;9.80;68.70
19403;DHT22;9837;48.888;8.998;2024-02-23T01:38:32;9.90;68.10
19403;DHT22;9837;48.888;8.998;2024-02-23T01:40:59;10.00;67.90
19403;DHT22;9837;48.888;8.998;2024-02-23T01:43:24;10.20;67.70
19403;DHT22;9837;48.888;8.998;2024-02-23T01:45:51;10.30;67.60
19403;DHT22;9837;48.888;8.998;2024-02-23T01:50:43;10.20;67.30
19403;DHT22;9837;48.888;8.998;2024-02-23T01:53:10;10.20;67.90
19403;DHT22;9837;48.888;8.998;2024-02-23T01:55:40;10.30;68.30
19403;DHT22;9837;48.888;8.998;2024-02-23T01:58:06;10.20;68.60
19403;DHT22;9837;48.888;8.998;2024-02-23T02:00:32;10.00;70.20
19403;DHT22;9837;48.888;8.998;2024-02-23T02:02:57;10.00;71.00
19403;DHT22;9837;48.888;8.998;2024-02-23T02:05:24;9.90;71.10
19403;DHT22;9837;48.888;8.998;2024-02-23T02:07:50;9.80;71.20
19403;DHT22;9837;48.888;8.998;2024-02-23T02:10:20;9.60;72.40
19403;DHT22;9837;48.888;8.998;2024-02-23T02:12:45;9.60;72.70
19403;DHT22;9837;48.888;8.998;2024-02-23T02:17:37;9.60;73.00
19403;DHT22;9837;48.888;8.998;2024-02-23T02:20:03;9.60;73.10
19403;DHT22;9837;48.888;8.998;2024-02-23T02:22:34;9.70;72.80
19403;DHT22;9837;48.888;8.998;2024-02-23T02:25:00;9.70;72.30
19403;DHT22;9837;48.888;8.998;2024-02-23T02:27:26;9.80;71.80
19403;DHT22;9837;48.888;8.998;2024-02-23T02:29:51;9.80;71.70
19403;DHT22;9837;48.888;8.998;2024-02-23T02:32:17;9.90;71.60
19403;DHT22;9837;48.888;8.998;2024-02-23T02:34:43;10.10;70.70
19403;DHT22;9837;48.888;8.998;2024-02-23T02:37:09;10.20;70.00
19403;DHT22;9837;48.888;8.998;2024-02-23T02:39:34;10.10;70.30
19403;DHT22;9837;48.888;8.998;2024-02-23T02:44:27;10.20;69.50
19403;DHT22;9837;48.888;8.998;2024-02-23T02:46:56;10.20;69.00
19403;DHT22;9837;48.888;8.998;2024-02-23T02:49:22;10.00;69.10
19403;DHT22;9837;48.888;8.998;2024-02-23T02:51:47;10.10;69.30
19403;DHT22;9837;48.888;8.998;2024-02-23T02:54:13;10.00;68.60
19403;DHT22;9837;48.888;8.998;2024-02-23T02:56:46;9.90;68.50
19403;DHT22;9837;48.888;8.998;2024-02-23T02:59:12;9.90;68.60
19403;DHT22;9837;48.888;8.998;2024-02-23T03:01:39;9.90;67.90
19403;DHT22;9837;48.888;8.998;2024-02-23T03:04:05;10.00;67.40
19403;DHT22;9837;48.888;8.998;2024-02-23T03:06:30;9.90;66.80
19403;DHT22;9837;48.888;8.998;2024-02-23T03:08:56;9.70;66.90
19403;DHT22;9837;48.888;8.998;2024-02-23T03:16:17;9.70;66.10
19403;DHT22;9837;48.888;8.998;2024-02-23T03:18:43;9.60;66.00
19403;DHT22;9837;48.888;8.998;2024-02-23T03:21:08;9.50;66.40
19403;DHT22;9837;48.888;8.998;2024-02-23T03:23:35;9.50;66.10
19403;DHT22;9837;48.888;8.998;2024-02-23T03:28:26;9.50;66.00
19403;DHT22;9837;48.888;8.998;2024-02-23T03:30:52;9.60;65.60
19403;DHT22;9837;48.888;8.998;2024-02-23T03:33:18;9.50;65.30
19403;DHT22;9837;48.888;8.998;2024-02-23T03:35:43;9.50;65.40
19403;DHT22;9837;48.888;8.998;2024-02-23T03:38:09;9.50;65.40
19403;DHT22;9837;48.888;8.998;2024-02-23T03:40:34;9.30;66.10
19403;DHT22;9837;48.888;8.998;2024-02-23T03:45:27;9.70;65.20
19403;DHT22;9837;48.888;8.998;2024-02-23T03:47:53;9.70;64.50
19403;DHT22;9837;48.888;8.998;2024-02-23T03:50:18;9.60;64.40
19403;DHT22;9837;48.888;8.998;2024-02-23T03:52:44;9.80;64.40
19403;DHT22;9837;48.888;8.998;2024-02-23T03:57:36;9.70;63.30
19403;DHT22;9837;48.888;8.998;2024-02-23T04:02:28;9.50;63.80
19403;DHT22;9837;48.888;8.998;2024-02-23T04:04:53;9.80;62.80
19403;DHT22;9837;48.888;8.998;2024-02-23T04:07:19;9.70;62.80
19403;DHT22;9837;48.888;8.998;2024-02-23T04:09:45;9.50;62.70
19403;DHT22;9837;48.888;8.998;2024-02-23T04:12:10;9.40;63.40
19403;DHT22;9837;48.888;8.998;2024-02-23T04:17:05;9.20;63.20
19403;DHT22;9837;48.888;8.998;2024-02-23T04:19:30;9.40;62.80
19403;DHT22;9837;48.888;8.998;2024-02-23T04:21:56;9.50;62.30
19403;DHT22;9837;48.888;8.998;2024-02-23T04:24:21;9.50;61.90
19403;DHT22;9837;48.888;8.998;2024-02-23T04:29:13;9.60;60.90
19403;DHT22;9837;48.888;8.998;2024-02-23T04:31:38;9.50;60.40
19403;DHT22;9837;48.888;8.998;2024-02-23T04:34:04;9.40;61.00
19403;DHT22;9837;48.888;8.998;2024-02-23T04:36:29;9.40;60.20
19403;DHT22;9837;48.888;8.998;2024-02-23T04:38:55;9.40;60.70
19403;DHT22;9837;48.888;8.998;2024-02-23T04:41:20;9.50;60.90
19403;DHT22;9837;48.888;8.998;2024-02-23T04:43:50;9.80;59.80
19403;DHT22;9837;48.888;8.998;2024-02-23T04:46:16;9.80;59.00
19403;DHT22;9837;48.888;8.998;2024-02-23T04:48:41;10.00;58.90
19403;DHT22;9837;48.888;8.998;2024-02-23T04:51:07;10.10;58.60
19403;DHT22;9837;48.888;8.998;2024-02-23T04:53:38;10.00;57.70
19403;DHT22;9837;48.888;8.998;2024-02-23T04:56:05;10.00;57.70
19403;DHT22;9837;48.888;8.998;2024-02-23T04:58:30;9.80;57.60
19403;DHT22;9837;48.888;8.998;2024-02-23T05:00:56;10.00;57.30
19403;DHT22;9837;48.888;8.998;2024-02-23T05:03:21;10.20;57.20
19403;DHT22;9837;48.888;8.998;2024-02-23T05:05:47;10.30;56.80
19403;DHT22;9837;48.888;8.998;2024-02-23T05:08:13;10.30;56.70
19403;DHT22;9837;48.888;8.998;2024-02-23T05:15:30;10.20;56.10
19403;DHT22;9837;48.888;8.998;2024-02-23T05:17:56;10.20;56.30
19403;DHT22;9837;48.888;8.998;2024-02-23T05:20:21;10.10;56.50
19403;DHT22;9837;48.888;8.998;2024-02-23T05:22:47;10.20;56.80
19403;DHT22;9837;48.888;8.998;2024-02-23T05:27:39;10.20;56.70
19403;DHT22;9837;48.888;8.998;2024-02-23T05:30:05;10.20;56.60
19403;DHT22;9837;48.888;8.998;2024-02-23T05:32:32;10.10;56.90
19403;DHT22;9837;48.888;8.998;2024-02-23T05:34:57;10.10;57.50
19403;DHT22;9837;48.888;8.998;2024-02-23T05:37:23;9.90;57.40
19403;DHT22;9837;48.888;8.998;2024-02-23T05:39:49;10.00;57.50
19403;DHT22;9837;48.888;8.998;2024-02-23T05:42:14;10.00;57.50
19403;DHT22;9837;48.888;8.998;2024-02-23T05:44:43;10.00;57.50
19403;DHT22;9837;48.888;8.998;2024-02-23T05:47:09;10.10;57.70
19403;DHT22;9837;48.888;8.998;2024-02-23T05:49:35;10.10;58.20
19403;DHT22;9837;48.888;8.998;2024-02-23T05:52:01;10.00;57.80
19403;DHT22;9837;48.888;8.998;2024-02-23T05:54:26;10.00;58.40
19403;DHT22;9837;48.888;8.998;2024-02-23T05:56:52;10.00;58.20
19403;DHT22;9837;48.888;8.998;2024-02-23T05:59:17;9.80;58.30
19403;DHT22;9837;48.888;8.998;2024-02-23T06:01:43;9.80;58.60
19403;DHT22;9837;48.888;8.998;2024-02-23T06:04:09;9.80;57.80
19403;DHT22;9837;48.888;8.998;2024-02-23T06:06:34;9.80;58.40
19403;DHT22;9837;48.888;8.998;2024-02-23T06:09:00;9.60;59.00
19403;DHT22;9837;48.888;8.998;2024-02-23T06:13:51;9.30;59.20
19403;DHT22;9837;48.888;8.998;2024-02-23T06:16:20;9.30;58.80
19403;DHT22;9837;48.888;8.998;2024-02-23T06:18:46;9.30;58.90
19403;DHT22;9837;48.888;8.998;2024-02-23T06:21:13;9.40;58.60
19403;DHT22;9837;48.888;8.998;2024-02-23T06:23:39;9.50;58.40
19403;DHT22;9837;48.888;8.998;2024-02-23T06:26:05;9.60;58.10
19403;DHT22;9837;48.888;8.998;2024-02-23T06:28:31;9.60;58.10
19403;DHT22;9837;48.888;8.998;2024-02-23T06:30:56;9.60;58.60
19403;DHT22;9837;48.888;8.998;2024-02-23T06:33:22;9.50;58.60
19403;DHT22;9837;48.888;8.998;2024-02-23T06:38:13;9.40;59.00
19403;DHT22;9837;48.888;8.998;2024-02-23T06:40:39;9.30;59.90
19403;DHT22;9837;48.888;8.998;2024-02-23T06:43:04;9.10;60.00
19403;DHT22;9837;48.888;8.998;2024-02-23T06:45:29;9.10;60.60
19403;DHT22;9837;48.888;8.998;2024-02-23T06:47:55;9.50;60.90
19403;DHT22;9837;48.888;8.998;2024-02-23T06:50:20;9.30;60.50
19403;DHT22;9837;48.888;8.998;2024-02-23T06:52:47;9.30;59.70
19403;DHT22;9837;48.888;8.998;2024-02-23T06:55:15;9.30;60.30
19403;DHT22;9837;48.888;8.998;2024-02-23T06:57:41;9.30;60.50
19403;DHT22;9837;48.888;8.998;2024-02-23T07:00:07;9.50;60.50
19403;DHT22;9837;48.888;8.998;2024-02-23T07:02:33;9.30;60.20
19403;DHT22;9837;48.888;8.998;2024-02-23T07:05:02;9.40;60.20
19403;DHT22;9837;48.888;8.998;2024-02-23T07:07:30;9.60;60.50
19403;DHT22;9837;48.888;8.998;2024-02-23T07:09:56;9.30;60.40
19403;DHT22;9837;48.888;8.998;2024-02-23T07:12:21;9.30;61.10
19403;DHT22;9837;48.888;8.998;2024-02-23T07:14:47;9.60;62.10
19403;DHT22;9837;48.888;8.998;2024-02-23T07:17:16;9.40;61.40
19403;DHT22;9837;48.888;8.998;2024-02-23T07:19:42;9.30;61.60
19403;DHT22;9837;48.888;8.998;2024-02-23T07:22:07;9.20;62.30
19403;DHT22;9837;48.888;8.998;2024-02-23T07:24:33;9.40;62.40
19403;DHT22;9837;48.888;8.998;2024-02-23T07:26:58;9.60;61.70
19403;DHT22;9837;48.888;8.998;2024-02-23T07:29:24;9.60;62.50
19403;DHT22;9837;48.888;8.998;2024-02-23T07:31:49;9.60;62.50
19403;DHT22;9837;48.888;8.998;2024-02-23T07:34:15;9.60;62.90
19403;DHT22;9837;48.888;8.998;2024-02-23T07:36:40;9.40;63.50
19403;DHT22;9837;48.888;8.998;2024-02-23T07:39:07;9.60;63.60
19403;DHT22;9837;48.888;8.998;2024-02-23T07:41:32;9.40;63.80
19403;DHT22;9837;48.888;8.998;2024-02-23T07:43:58;9.50;64.20
19403;DHT22;9837;48.888;8.998;2024-02-23T07:46:23;9.40;64.30
19403;DHT22;9837;48.888;8.998;2024-02-23T07:48:49;9.50;64.60
19403;DHT22;9837;48.888;8.998;2024-02-23T07:51:14;8.80;65.20
19403;DHT22;9837;48.888;8.998;2024-02-23T07:53:40;8.40;67.10
19403;DHT22;9837;48.888;8.998;2024-02-23T07:56:07;9.00;66.30
19403;DHT22;9837;48.888;8.998;2024-02-23T07:58:33;9.20;64.90
19403;DHT22;9837;48.888;8.998;2024-02-23T08:00:58;9.20;65.60
19403;DHT22;9837;48.888;8.998;2024-02-23T08:03:24;9.90;63.90
19403;DHT22;9837;48.888;8.998;2024-02-23T08:05:49;9.80;64.60
19403;DHT22;9837;48.888;8.998;2024-02-23T08:08:15;10.00;63.20
19403;DHT22;9837;48.888;8.998;2024-02-23T08:10:40;10.20;63.30
19403;DHT22;9837;48.888;8.998;2024-02-23T08:13:06;10.60;63.20
19403;DHT22;9837;48.888;8.998;2024-02-23T08:15:31;10.00;63.10
19403;DHT22;9837;48.888;8.998;2024-02-23T08:17:57;9.80;62.80
19403;DHT22;9837;48.888;8.998;2024-02-23T08:20:22;9.60;63.50
19403;DHT22;9837;48.888;8.998;2024-02-23T08:22:48;9.70;62.70
19403;DHT22;9837;48.888;8.998;2024-02-23T08:25:14;9.70;63.40
19403;DHT22;9837;48.888;8.998;2024-02-23T08:27:41;10.00;62.40
19403;DHT22;9837;48.888;8.998;2024-02-23T08:30:07;9.70;62.80
19403;DHT22;9837;48.888;8.998;2024-02-23T08:32:32;9.50;64.00
19403;DHT22;9837;48.888;8.998;2024-02-23T08:34:58;9.80;63.30
19403;DHT22;9837;48.888;8.998;2024-02-23T08:37:27;9.00;64.70
19403;DHT22;9837;48.888;8.998;2024-02-23T08:39:53;9.40;65.70
19403;DHT22;9837;48.888;8.998;2024-02-23T08:42:19;10.20;61.60
19403;DHT22;9837;48.888;8.998;2024-02-23T08:44:45;10.20;62.30
19403;DHT22;9837;48.888;8.998;2024-02-23T08:47:10;10.10;60.80
19403;DHT22;9837;48.888;8.998;2024-02-23T08:49:36;10.50;60.00
19403;DHT22;9837;48.888;8.998;2024-02-23T08:52:01;10.60;60.50
19403;DHT22;9837;48.888;8.998;2024-02-23T08:54:27;10.60;59.80
19403;DHT22;9837;48.888;8.998;2024-02-23T08:56:53;10.40;60.20
19403;DHT22;9837;48.888;8.998;2024-02-23T08:59:18;10.40;60.00
19403;DHT22;9837;48.888;8.998;2024-02-23T09:01:44;10.30;60.50
19403;DHT22;9837;48.888;8.998;2024-02-23T09:04:12;10.30;60.30
19403;DHT22;9837;48.888;8.998;2024-02-23T09:06:38;10.40;60.60
19403;DHT22;9837;48.888;8.998;2024-02-23T09:09:03;10.40;60.00
19403;DHT22;9837;48.888;8.998;2024-02-23T09:11:29;10.40;60.80
19403;DHT22;9837;48.888;8.998;2024-02-23T09:13:54;10.70;61.10
19403;DHT22;9837;48.888;8.998;2024-02-23T09:16:20;10.60;62.10
19403;DHT22;9837;48.888;8.998;2024-02-23T09:18:47;10.50;62.40
19403;DHT22;9837;48.888;8.998;2024-02-23T09:21:14;10.50;62.30
19403;DHT22;9837;48.888;8.998;2024-02-23T09:23:39;10.50;63.10
19403;DHT22;9837;48.888;8.998;2024-02-23T09:26:09;10.30;63.70
19403;DHT22;9837;48.888;8.998;2024-02-23T09:28:36;10.20;63.00
19403;DHT22;9837;48.888;8.998;2024-02-23T09:31:01;10.10;63.80
19403;DHT22;9837;48.888;8.998;2024-02-23T09:33:28;10.00;64.60
19403;DHT22;9837;48.888;8.998;2024-02-23T09:35:54;9.80;64.80
19403;DHT22;9837;48.888;8.998;2024-02-23T09:38:19;10.10;64.40
19403;DHT22;9837;48.888;8.998;2024-02-23T09:40:45;10.00;65.00
19403;DHT22;9837;48.888;8.998;2024-02-23T09:43:12;9.90;63.30
19403;DHT22;9837;48.888;8.998;2024-02-23T09:45:38;10.00;64.20
19403;DHT22;9837;48.888;8.998;2024-02-23T09:48:04;10.60;63.80
19403;DHT22;9837;48.888;8.998;2024-02-23T09:50:31;10.20;63.70
19403;DHT22;9837;48.888;8.998;2024-02-23T09:52:58;10.40;62.70
19403;DHT22;9837;48.888;8.998;2024-02-23T09:55:24;10.40;63.20
19403;DHT22;9837;48.888;8.998;2024-02-23T09:57:52;10.20;62.30
19403;DHT22;9837;48.888;8.998;2024-02-23T10:00:23;10.20;63.30
19403;DHT22;9837;48.888;8.998;2024-02-23T10:02:48;10.20;61.10
19403;DHT22;9837;48.888;8.998;2024-02-23T10:05:14;10.10;61.90
19403;DHT22;9837;48.888;8.998;2024-02-23T10:07:40;9.60;62.10
19403;DHT22;9837;48.888;8.998;2024-02-23T10:10:09;9.60;62.90
19403;DHT22;9837;48.888;8.998;2024-02-23T10:12:36;9.30;64.60
19403;DHT22;9837;48.888;8.998;2024-02-23T10:17:30;9.00;65.20
19403;DHT22;9837;48.888;8.998;2024-02-23T10:22:25;9.60;64.40
19403;DHT22;9837;48.888;8.998;2024-02-23T10:24:51;9.60;64.10
19403;DHT22;9837;48.888;8.998;2024-02-23T10:27:17;9.70;64.50
19403;DHT22;9837;48.888;8.998;2024-02-23T10:29:42;9.90;64.50
19403;DHT22;9837;48.888;8.998;2024-02-23T10:32:11;10.00;63.90
19403;DHT22;9837;48.888;8.998;2024-02-23T10:34:39;9.60;64.10
19403;DHT22;9837;48.888;8.998;2024-02-23T10:37:07;9.90;64.00
19403;DHT22;9837;48.888;8.998;2024-02-23T10:39:36;10.20;63.20
19403;DHT22;9837;48.888;8.998;2024-02-23T10:42:04;10.60;62.40
19403;DHT22;9837;48.888;8.998;2024-02-23T10:44:31;10.70;59.70
19403;DHT22;9837;48.888;8.998;2024-02-23T10:46:58;10.70;60.50
19403;DHT22;9837;48.888;8.998;2024-02-23T10:49:24;10.70;59.80
19403;DHT22;9837;48.888;8.998;2024-02-23T10:51:52;10.60;60.40
19403;DHT22;9837;48.888;8.998;2024-02-23T10:54:19;10.50;60.30
19403;DHT22;9837;48.888;8.998;2024-02-23T10:56:54;10.60;59.80
19403;DHT22;9837;48.888;8.998;2024-02-23T10:59:21;10.70;60.20
19403;DHT22;9837;48.888;8.998;2024-02-23T11:01:49;11.00;59.80
19403;DHT22;9837;48.888;8.998;2024-02-23T11:04:18;11.10;58.40
19403;DHT22;9837;48.888;8.998;2024-02-23T11:06:51;10.90;59.10
19403;DHT22;9837;48.888;8.998;2024-02-23T11:09:21;11.00;59.10
19403;DHT22;9837;48.888;8.998;2024-02-23T11:11:57;11.10;59.40
19403;DHT22;9837;48.888;8.998;2024-02-23T11:14:34;11.10;58.90
19403;DHT22;9837;48.888;8.998;2024-02-23T11:17:00;11.10;59.30
19403;DHT22;9837;48.888;8.998;2024-02-23T11:19:37;11.00;58.60
19403;DHT22;9837;48.888;8.998;2024-02-23T11:22:03;11.00;59.10
19403;DHT22;9837;48.888;8.998;2024-02-23T11:24:30;11.20;59.70
19403;DHT22;9837;48.888;8.998;2024-02-23T11:27:00;11.30;59.00
19403;DHT22;9837;48.888;8.998;2024-02-23T11:29:33;11.10;57.70
19403;DHT22;9837;48.888;8.998;2024-02-23T11:32:00;11.10;58.30
19403;DHT22;9837;48.888;8.998;2024-02-23T11:34:28;11.20;58.90
19403;DHT22;9837;48.888;8.998;2024-02-23T11:39:20;11.00;58.70
19403;DHT22;9837;48.888;8.998;2024-02-23T11:41:48;11.10;59.40
19403;DHT22;9837;48.888;8.998;2024-02-23T11:44:17;11.00;58.50
19403;DHT22;9837;48.888;8.998;2024-02-23T11:46:44;10.70;59.50
19403;DHT22;9837;48.888;8.998;2024-02-23T11:49:10;10.80;59.20
19403;DHT22;9837;48.888;8.998;2024-02-23T11:51:36;11.20;57.70
19403;DHT22;9837;48.888;8.998;2024-02-23T11:54:02;11.20;58.30
19403;DHT22;9837;48.888;8.998;2024-02-23T11:56:29;11.50;57.40
19403;DHT22;9837;48.888;8.998;2024-02-23T11:58:54;11.60;57.40
19403;DHT22;9837;48.888;8.998;2024-02-23T12:01:21;11.60;58.00
19403;DHT22;9837;48.888;8.998;2024-02-23T12:03:46;11.60;58.00
19403;DHT22;9837;48.888;8.998;2024-02-23T12:06:14;11.60;57.80
19403;DHT22;9837;48.888;8.998;2024-02-23T12:08:43;11.70;56.70
19403;DHT22;9837;48.888;8.998;2024-02-23T12:11:11;12.20;56.00
19403;DHT22;9837;48.888;8.998;2024-02-23T12:13:39;12.30;56.80
19403;DHT22;9837;48.888;8.998;2024-02-23T12:16:07;12.50;55.50
19403;DHT22;9837;48.888;8.998;2024-02-23T12:18:34;12.60;56.50
19403;DHT22;9837;48.888;8.998;2024-02-23T12:21:01;12.80;55.10
19403;DHT22;9837;48.888;8.998;2024-02-23T12:23:37;12.70;54.40
19403;DHT22;9837;48.888;8.998;2024-02-23T12:26:03;12.70;55.00
19403;DHT22;9837;48.888;8.998;2024-02-23T12:28:28;12.30;54.20
19403;DHT22;9837;48.888;8.998;2024-02-23T12:31:05;12.20;54.70
19403;DHT22;9837;48.888;8.998;2024-02-23T12:33:35;11.60;57.30
19403;DHT22;9837;48.888;8.998;2024-02-23T12:36:02;11.70;57.10
19403;DHT22;9837;48.888;8.998;2024-02-23T12:38:28;11.80;56.80
19403;DHT22;9837;48.888;8.998;2024-02-23T12:40:53;12.00;57.40
19403;DHT22;9837;48.888;8.998;2024-02-23T12:43:19;11.60;56.00
19403;DHT22;9837;48.888;8.998;2024-02-23T12:45:53;11.50;56.90
19403;DHT22;9837;48.888;8.998;2024-02-23T12:48:19;11.40;56.30
19403;DHT22;9837;48.888;8.998;2024-02-23T12:50:46;11.40;56.90
19403;DHT22;9837;48.888;8.998;2024-02-23T12:53:36;11.80;56.40
19403;DHT22;9837;48.888;8.998;2024-02-23T12:56:07;11.80;56.70
19403;DHT22;9837;48.888;8.998;2024-02-23T12:58:37;11.60;55.80
19403;DHT22;9837;48.888;8.998;2024-02-23T13:01:03;11.50;56.50
19403;DHT22;9837;48.888;8.998;2024-02-23T13:03:28;10.80;58.80
19403;DHT22;9837;48.888;8.998;2024-02-23T13:05:55;11.30;57.10
19403;DHT22;9837;48.888;8.998;2024-02-23T13:08:21;11.40;56.80
19403;DHT22;9837;48.888;8.998;2024-02-23T13:10:48;11.40;57.30
19403;DHT22;9837;48.888;8.998;2024-02-23T13:13:13;11.60;57.00
19403;DHT22;9837;48.888;8.998;2024-02-23T13:15:43;11.50;56.50
19403;DHT22;9837;48.888;8.998;2024-02-23T13:18:08;11.50;57.10
19403;DHT22;9837;48.888;8.998;2024-02-23T13:20:34;11.40;56.50
19403;DHT22;9837;48.888;8.998;2024-02-23T13:23:00;11.20;56.70
19403;DHT22;9837;48.888;8.998;2024-02-23T13:25:27;11.30;57.00
19403;DHT22;9837;48.888;8.998;2024-02-23T13:27:53;11.50;56.50
19403;DHT22;9837;48.888;8.998;2024-02-23T13:30:18;12.00;55.90
19403;DHT22;9837;48.888;8.998;2024-02-23T13:32:44;12.10;56.40
19403;DHT22;9837;48.888;8.998;2024-02-23T13:35:10;12.00;55.60
19403;DHT22;9837;48.888;8.998;2024-02-23T13:37:35;11.80;56.50
19403;DHT22;9837;48.888;8.998;2024-02-23T13:40:01;11.80;56.70
19403;DHT22;9837;48.888;8.998;2024-02-23T13:42:26;11.80;57.10
19403;DHT22;9837;48.888;8.998;2024-02-23T13:44:52;11.70;55.60
19403;DHT22;9837;48.888;8.998;2024-02-23T13:47:17;11.70;56.10
19403;DHT22;9837;48.888;8.998;2024-02-23T13:52:09;11.70;56.10
19403;DHT22;9837;48.888;8.998;2024-02-23T13:54:35;11.90;56.00
19403;DHT22;9837;48.888;8.998;2024-02-23T13:57:00;11.90;56.40
19403;DHT22;9837;48.888;8.998;2024-02-23T13:59:26;11.70;56.20
19403;DHT22;9837;48.888;8.998;2024-02-23T14:01:51;10.60;58.00
19403;DHT22;9837;48.888;8.998;2024-02-23T14:04:17;10.90;58.00
19403;DHT22;9837;48.888;8.998;2024-02-23T14:06:42;11.00;57.80
19403;DHT22;9837;48.888;8.998;2024-02-23T14:09:08;11.10;58.40
19403;DHT22;9837;48.888;8.998;2024-02-23T14:11:34;11.60;58.10
19403;DHT22;9837;48.888;8.998;2024-02-23T14:14:00;11.90;56.20
19403;DHT22;9837;48.888;8.998;2024-02-23T14:16:25;12.00;55.90
19403;DHT22;9837;48.888;8.998;2024-02-23T14:18:51;12.00;56.50
19403;DHT22;9837;48.888;8.998;2024-02-23T14:21:16;12.00;55.00
19403;DHT22;9837;48.888;8.998;2024-02-23T14:23:43;12.00;55.50
19403;DHT22;9837;48.888;8.998;2024-02-23T14:26:09;11.70;56.50
19403;DHT22;9837;48.888;8.998;2024-02-23T14:31:01;11.80;56.50
19403;DHT22;9837;48.888;8.998;2024-02-23T14:33:26;11.80;55.80
19403;DHT22;9837;48.888;8.998;2024-02-23T14:35:52;11.70;55.50
19403;DHT22;9837;48.888;8.998;2024-02-23T14:40:44;11.70;55.60
19403;DHT22;9837;48.888;8.998;2024-02-23T14:43:09;11.90;56.30
19403;DHT22;9837;48.888;8.998;2024-02-23T14:45:36;12.30;56.40
19403;DHT22;9837;48.888;8.998;2024-02-23T14:48:01;12.50;55.50
19403;DHT22;9837;48.888;8.998;2024-02-23T14:52:53;12.90;55.10
19403;DHT22;9837;48.888;8.998;2024-02-23T14:55:19;12.70;54.80
19403;DHT22;9837;48.888;8.998;2024-02-23T14:57:45;12.40;55.10
19403;DHT22;9837;48.888;8.998;2024-02-23T15:00:11;12.50;55.30
19403;DHT22;9837;48.888;8.998;2024-02-23T15:02:37;12.50;55.90
19403;DHT22;9837;48.888;8.998;2024-02-23T15:05:05;12.20;54.70
19403;DHT22;9837;48.888;8.998;2024-02-23T15:07:31;12.20;55.30
19403;DHT22;9837;48.888;8.998;2024-02-23T15:09:57;12.20;56.20
19403;DHT22;9837;48.888;8.998;2024-02-23T15:12:22;12.60;55.40
19403;DHT22;9837;48.888;8.998;2024-02-23T15:14:49;12.50;55.50
19403;DHT22;9837;48.888;8.998;2024-02-23T15:17:15;12.60;55.90
19403;DHT22;9837;48.888;8.998;2024-02-23T15:19:40;12.50;56.00
19403;DHT22;9837;48.888;8.998;2024-02-23T15:22:06;12.50;56.60
19403;DHT22;9837;48.888;8.998;2024-02-23T15:24:33;12.60;56.70
19403;DHT22;9837;48.888;8.998;2024-02-23T15:26:58;12.60;57.40
19403;DHT22;9837;48.888;8.998;2024-02-23T15:29:24;12.70;56.30
19403;DHT22;9837;48.888;8.998;2024-02-23T15:31:50;12.00;57.30
19403;DHT22;9837;48.888;8.998;2024-02-23T15:34:16;11.40;59.90
19403;DHT22;9837;48.888;8.998;2024-02-23T15:39:07;11.00;62.00
19403;DHT22;9837;48.888;8.998;2024-02-23T15:41:33;11.30;60.80
19403;DHT22;9837;48.888;8.998;2024-02-23T15:46:29;11.70;60.50
19403;DHT22;9837;48.888;8.998;2024-02-23T15:48:56;11.70;61.10
19403;DHT22;9837;48.888;8.998;2024-02-23T15:51:22;11.20;61.80
19403;DHT22;9837;48.888;8.998;2024-02-23T15:53:48;11.00;61.60
19403;DHT22;9837;48.888;8.998;2024-02-23T15:56:13;11.10;62.80
19403;DHT22;9837;48.888;8.998;2024-02-23T15:58:38;11.10;63.50
19403;DHT22;9837;48.888;8.998;2024-02-23T16:01:05;11.10;62.20
19403;DHT22;9837;48.888;8.998;2024-02-23T16:03:30;10.90;62.80
19403;DHT22;9837;48.888;8.998;2024-02-23T16:05:56;11.00;63.60
19403;DHT22;9837;48.888;8.998;2024-02-23T16:13:30;10.50;64.80
19403;DHT22;9837;48.888;8.998;2024-02-23T16:15:55;10.10;65.90
19403;DHT22;9837;48.888;8.998;2024-02-23T16:18:21;10.00;66.90
19403;DHT22;9837;48.888;8.998;2024-02-23T16:20:46;10.30;66.40
19403;DHT22;9837;48.888;8.998;2024-02-23T16:23:12;10.60;65.20
19403;DHT22;9837;48.888;8.998;2024-02-23T16:25:37;10.70;64.60
19403;DHT22;9837;48.888;8.998;2024-02-23T16:28:03;10.70;64.60
19403;DHT22;9837;48.888;8.998;2024-02-23T16:30:28;10.70;64.20
19403;DHT22;9837;48.888;8.998;2024-02-23T16:32:55;10.70;64.20
19403;DHT22;9837;48.888;8.998;2024-02-23T16:35:21;10.70;64.60
19403;DHT22;9837;48.888;8.998;2024-02-23T16:37:46;10.80;64.30
19403;DHT22;9837;48.888;8.998;2024-02-23T16:40:24;10.80;64.00
19403;DHT22;9837;48.888;8.998;2024-02-23T16:42:59;10.80;63.60
19403;DHT22;9837;48.888;8.998;2024-02-23T16:45:25;10.80;64.30
19403;DHT22;9837;48.888;8.998;2024-02-23T16:47:51;10.50;64.40
19403;DHT22;9837;48.888;8.998;2024-02-23T16:50:17;10.60;64.30
19403;DHT22;9837;48.888;8.998;2024-02-23T16:52:42;10.50;64.20
19403;DHT22;9837;48.888;8.998;2024-02-23T16:55:08;10.50;64.90
19403;DHT22;9837;48.888;8.998;2024-02-23T16:57:34;10.60;63.80
19403;DHT22;9837;48.888;8.998;2024-02-23T17:02:26;10.90;63.70